Paraje, New Mexico
Current Conditions -  °F | °C
As of 6:17 AM on Wednesday 22 Oct 2014 (Local Time) from KGNT Reporting Station
Haze Haze  
Wind Chill: 34°   Ceiling: Unl
Heat Index: 34°   Visibility: 5mi
Dew Point: 34°   Wind: 0mph
Humidity: 100%   Direction: NA
Pressure: 30.21"   Gusts: NA
Location:  35.0048°N, 107.383°W
Report Text: KGNT 221217Z AUTO 00000KT 5SM BR CLR 01/01 A3021 RMK AO2 LTG DSNT N
Loading
Personal Weather Stations






























Interactive Weather Map
Tropical Storm Tracking
New forecast layout! Learn more

10-Day Weather Forecast

Advertisements
Track Severe Weather on mobile